Mora RC

2021-05-08 21:30:00

  • imperial
Date Time Air Temperature Relative Humidity Dewpoint Windchill Heat Index Wind Speed Wind Dir. Rain Solar Radiation Soil Temperature
2m 2m 3m 3m 10cm
US/Mountain F % F F F MPH deg in MJ/m^2 F
max avg avg
2021-05-07 21:40:00 48.7 68.7 38.8 45.4 48.7 7.4 8.5 6.7 307.2 292.9 0.00 0.0000000 59.3
2021-05-07 21:45:00 48.6 68.0 38.6 46.1 48.6 5.8 8.5 6.0 284.1 291.6 0.00 0.0000000 59.1
2021-05-07 21:50:00 48.4 68.6 38.5 46.1 48.4 5.3 7.1 5.6 315.9 290.0 0.00 0.0000000 59.0
2021-05-07 21:55:00 48.4 68.1 38.4 46.9 48.4 4.2 9.0 5.8 296.0 298.6 0.00 0.0000000 58.9
2021-05-07 22:00:00 48.6 66.2 37.9 46.3 48.6 5.5 9.0 6.3 253.9 278.0 0.00 0.0000000 58.8
2021-05-07 22:05:00 48.1 67.9 38.0 45.9 48.1 5.1 7.4 5.3 287.8 262.2 0.00 0.0000000 58.7
2021-05-07 22:10:00 47.5 69.8 38.2 46.0 47.5 4.0 6.2 4.4 276.5 281.6 0.00 0.0000000 58.6
2021-05-07 22:15:00 47.2 70.0 37.9 44.9 47.2 5.1 6.2 4.6 316.1 280.0 0.00 0.0000000 58.4
2021-05-07 22:20:00 47.3 69.1 37.7 45.3 47.3 4.6 5.3 3.9 213.8 257.8 0.00 0.0000000 58.3
2021-05-07 22:25:00 46.9 68.8 37.2 45.5 46.9 3.7 5.5 3.9 246.1 237.8 0.00 0.0000000 58.2
2021-05-07 22:30:00 47.3 67.8 37.2 45.7 47.3 4.0 8.1 5.0 273.4 251.0 0.00 0.0000000 58.1
2021-05-07 22:35:00 47.4 67.5 37.2 47.4 47.4 3.0 6.7 4.1 227.7 251.0 0.00 0.0000000 58.0
2021-05-07 22:40:00 46.7 69.6 37.2 46.7 46.7 2.8 6.0 4.0 254.0 237.9 0.00 0.0000000 57.9
2021-05-07 22:45:00 46.5 69.2 37.0 44.2 46.5 4.9 6.9 4.2 197.8 248.3 0.00 0.0000000 57.8
2021-05-07 22:50:00 46.0 70.1 36.8 44.7 46.0 3.5 5.5 3.5 242.8 265.6 0.00 0.0000000 57.7
2021-05-07 22:55:00 45.8 70.8 36.8 44.3 45.8 3.7 6.0 4.0 287.7 273.9 0.00 0.0000000 57.6
2021-05-07 23:00:00 45.7 70.6 36.7 42.9 45.7 5.5 6.5 4.5 286.1 286.5 0.00 0.0000000 57.5
2021-05-07 23:05:00 45.6 70.1 36.4 43.0 45.6 4.9 5.1 4.1 279.2 281.4 0.00 0.0000000 57.4
2021-05-07 23:10:00 45.4 71.0 36.5 43.3 45.4 4.2 5.5 4.0 247.0 287.9 0.00 0.0000000 57.3
2021-05-07 23:15:00 45.4 70.6 36.4 43.1 45.4 4.6 4.9 3.0 225.8 276.6 0.00 0.0000000 57.2
2021-05-07 23:20:00 45.2 71.5 36.5 43.3 45.2 4.0 4.0 3.3 268.1 265.2 0.00 0.0000000 57.1
2021-05-07 23:25:00 45.2 72.4 36.8 42.6 45.2 4.9 6.3 4.4 256.9 254.2 0.00 0.0000000 56.9
2021-05-07 23:30:00 45.3 72.4 37.0 44.2 45.3 3.1 7.1 5.4 223.3 260.9 0.00 0.0000000 56.9
2021-05-07 23:35:00 45.4 72.6 37.1 43.5 45.4 4.0 7.2 5.0 250.6 253.6 0.00 0.0000000 56.8
2021-05-07 23:40:00 45.0 73.3 37.0 43.5 45.0 3.5 6.2 4.6 209.0 263.3 0.00 0.0000000 56.7
2021-05-07 23:45:00 45.0 72.0 36.5 42.5 45.0 4.7 8.1 4.7 207.2 256.0 0.00 0.0000000 56.6
2021-05-07 23:50:00 45.1 71.4 36.4 43.3 45.1 3.8 5.8 4.4 217.9 222.7 0.00 0.0000000 56.5
2021-05-07 23:55:00 45.3 69.4 35.9 41.9 45.3 6.3 7.6 3.8 256.3 257.1 0.00 0.0000000 56.4
2021-05-08 00:00:00 45.9 69.2 36.3 44.2 45.9 3.8 6.9 5.5 351.7 288.9 0.00 0.0000000 56.3
2021-05-08 00:05:00 45.9 68.5 36.1 44.1 45.9 4.0 6.2 4.0 259.0 287.3 0.00 0.0000000 56.3
2021-05-08 00:10:00 45.8 69.7 36.4 44.6 45.8 3.3 6.7 3.7 227.9 239.5 0.00 0.0000000 56.2
2021-05-08 00:15:00 45.8 69.9 36.6 43.6 45.8 4.6 4.9 3.2 259.4 268.9 0.00 0.0000000 56.1
2021-05-08 00:20:00 45.8 69.5 36.4 42.9 45.8 5.6 6.0 4.5 290.8 274.8 0.00 0.0000000 56.1
2021-05-08 00:25:00 45.7 70.0 36.5 43.0 45.7 5.3 7.4 5.3 248.0 259.4 0.00 0.0000000 56.0
2021-05-08 00:30:00 45.4 71.1 36.6 42.9 45.4 4.9 6.9 4.7 248.4 260.8 0.00 0.0000000 55.9
2021-05-08 00:35:00 45.4 70.4 36.4 45.4 45.4 2.1 5.3 3.5 254.3 250.6 0.00 0.0000000 55.9
2021-05-08 00:40:00 45.4 69.7 36.1 41.8 45.4 6.7 7.6 4.7 232.5 249.5 0.00 0.0000000 55.8
2021-05-08 00:45:00 45.4 69.7 36.1 42.5 45.4 5.5 9.7 6.7 307.0 268.8 0.00 0.0000000 55.7
2021-05-08 00:50:00 46.0 67.7 35.9 43.5 46.0 4.9 8.5 6.2 324.3 274.4 0.00 0.0000000 55.7
2021-05-08 00:55:00 46.2 67.8 36.1 44.9 46.2 3.5 6.5 4.7 295.2 261.0 0.00 0.0000000 55.6
2021-05-08 01:00:00 45.9 68.2 36.0 43.2 45.9 5.3 7.6 5.6 285.9 266.4 0.00 0.0000000 55.5
2021-05-08 01:05:00 45.8 68.3 36.0 43.6 45.8 4.6 6.0 4.2 250.9 272.9 0.00 0.0000000 55.5
2021-05-08 01:10:00 45.6 68.9 36.0 43.7 45.6 4.0 6.0 3.8 236.8 261.3 0.00 0.0000000 55.4
2021-05-08 01:15:00 45.6 69.1 36.0 45.6 45.6 1.2 5.5 3.2 1.5 271.4 0.00 0.0000000 55.4
2021-05-08 01:20:00 45.7 67.7 35.7 44.5 45.7 3.3 4.0 2.0 270.1 304.3 0.00 0.0000000 55.3
2021-05-08 01:25:00 45.6 68.0 35.6 45.6 45.6 1.0 3.1 1.3 329.2 270.7 0.00 0.0000000 55.2
2021-05-08 01:30:00 45.6 70.3 36.5 42.6 45.6 5.6 6.0 4.2 343.4 330.6 0.00 0.0000000 55.2
2021-05-08 01:35:00 45.1 75.0 37.6 45.1 45.1 0.0 4.2 1.6 353.0 336.5 0.00 0.0000000 55.2
2021-05-08 01:40:00 44.5 74.3 36.8 44.5 44.5 0.0 3.0 1.2 186.0 197.7 0.00 0.0000000 55.1
2021-05-08 01:45:00 43.9 74.9 36.4 43.9 43.9 2.4 2.8 0.5 338.8 338.5 0.00 0.0000000 55.0
2021-05-08 01:50:00 43.5 73.6 35.7 41.5 43.5 3.8 3.8 2.7 217.6 276.6 0.00 0.0000000 55.0
2021-05-08 01:55:00 42.1 76.1 35.1 40.2 42.1 3.5 4.4 3.1 185.8 226.0 0.00 0.0000000 55.0
2021-05-08 02:00:00 41.6 78.8 35.5 38.6 41.6 4.7 5.6 3.7 248.9 226.9 0.00 0.0000000 54.9
2021-05-08 02:05:00 42.0 78.1 35.7 38.5 42.0 5.5 5.5 3.4 243.1 229.1 0.00 0.0000000 54.8
2021-05-08 02:10:00 42.7 75.4 35.5 40.3 42.7 4.2 7.2 5.5 230.0 258.3 0.00 0.0000000 54.8
2021-05-08 02:15:00 42.2 76.9 35.5 40.0 42.2 3.8 7.1 4.4 309.2 272.2 0.00 0.0000000 54.7
2021-05-08 02:20:00 42.0 76.9 35.3 42.0 42.0 1.7 5.6 4.1 270.4 271.6 0.00 0.0000000 54.6
2021-05-08 02:25:00 42.4 75.3 35.2 40.1 42.4 4.0 7.2 3.8 258.9 280.8 0.00 0.0000000 54.6
2021-05-08 02:30:00 41.5 76.9 34.8 38.0 41.5 5.3 6.3 4.1 269.0 259.3 0.00 0.0000000 54.5
2021-05-08 02:35:00 41.7 75.8 34.6 38.4 41.7 5.1 7.6 5.3 245.6 259.7 0.00 0.0000000 54.4
2021-05-08 02:40:00 42.0 75.1 34.7 40.1 42.0 3.5 6.2 4.7 315.5 265.4 0.00 0.0000000 54.4
2021-05-08 02:45:00 42.1 75.2 34.8 38.3 42.1 6.0 6.5 4.8 243.6 269.1 0.00 0.0000000 54.3
2021-05-08 02:50:00 42.1 74.2 34.5 39.4 42.1 4.4 6.5 4.7 257.2 265.9 0.00 0.0000000 54.2
2021-05-08 02:55:00 41.7 75.3 34.5 41.7 41.7 3.0 7.1 4.2 316.8 251.0 0.00 0.0000000 54.1
2021-05-08 03:00:00 40.6 77.6 34.2 36.0 40.6 6.7 6.7 4.5 269.2 266.4 0.00 0.0000000 54.1
2021-05-08 03:05:00 40.3 79.0 34.3 37.3 40.3 4.4 6.9 4.6 222.4 251.3 0.00 0.0000000 54.0
2021-05-08 03:10:00 40.1 79.2 34.2 40.1 40.1 2.4 5.5 3.7 202.2 249.6 0.00 0.0000000 53.9
2021-05-08 03:15:00 39.9 79.0 34.0 37.4 39.9 3.8 5.5 4.0 257.6 251.0 0.00 0.0000000 53.9
2021-05-08 03:20:00 40.1 78.3 33.8 35.9 40.1 5.8 6.9 4.8 312.9 277.0 0.00 0.0000000 53.8
2021-05-08 03:25:00 40.1 78.6 33.9 36.6 40.1 4.9 5.5 4.1 307.9 298.3 0.00 0.0000000 53.7
2021-05-08 03:30:00 40.5 77.3 33.9 37.8 40.5 4.0 6.0 4.1 270.8 311.1 0.00 0.0000000 53.6
2021-05-08 03:35:00 40.4 77.3 33.9 37.0 40.4 4.9 6.3 3.4 313.0 316.6 0.00 0.0000000 53.6
2021-05-08 03:40:00 40.5 76.7 33.7 37.1 40.5 4.9 6.7 4.6 350.4 306.3 0.00 0.0000000 53.5
2021-05-08 03:45:00 40.5 75.3 33.3 37.7 40.5 4.2 7.1 4.2 224.8 284.2 0.00 0.0000000 53.4
2021-05-08 03:50:00 39.2 78.3 33.0 39.2 39.2 3.0 4.6 2.3 237.2 211.1 0.00 0.0000000 53.3
2021-05-08 03:55:00 38.8 80.4 33.2 38.8 38.8 0.0 4.2 1.8 251.0 282.8 0.00 0.0000000 53.3
2021-05-08 04:00:00 38.1 82.3 33.2 36.1 38.1 3.1 3.1 1.4 186.6 242.1 0.00 0.0000000 53.2
2021-05-08 04:05:00 38.5 80.9 33.1 38.5 38.5 2.1 5.6 3.5 11.2 182.8 0.00 0.0000000 53.1
2021-05-08 04:10:00 39.1 79.0 33.1 39.1 39.1 2.2 5.8 3.5 37.1 6.9 0.00 0.0000000 53.0
2021-05-08 04:15:00 38.7 81.5 33.5 35.9 38.7 3.8 4.9 2.4 294.1 351.2 0.00 0.0000000 53.0
2021-05-08 04:20:00 38.0 80.7 32.6 35.9 38.0 3.1 3.7 2.6 270.4 209.0 0.00 0.0000000 52.9
2021-05-08 04:25:00 37.7 82.7 32.9 35.1 37.7 3.5 3.7 2.5 218.3 311.9 0.00 0.0000000 52.8
2021-05-08 04:30:00 37.7 83.0 33.0 37.7 37.7 1.7 3.5 2.0 4.5 330.5 0.00 0.0000000 52.8
2021-05-08 04:35:00 38.2 84.0 33.8 38.2 38.2 1.7 4.7 2.4 199.4 167.2 0.00 0.0000000 52.7
2021-05-08 04:40:00 37.2 80.0 31.6 37.2 37.2 1.2 3.8 1.8 339.5 133.0 0.00 0.0000000 52.6
2021-05-08 04:45:00 36.7 85.3 32.8 32.8 36.7 4.7 4.7 3.0 218.5 343.4 0.00 0.0000000 52.6
2021-05-08 04:50:00 36.4 84.9 32.3 36.4 36.4 0.8 4.9 2.2 102.0 143.3 0.00 0.0000000 52.5
2021-05-08 04:55:00 36.3 86.9 32.8 36.3 36.3 0.8 3.8 2.0 131.9 303.6 0.00 0.0000000 52.4
2021-05-08 05:00:00 36.7 84.6 32.5 33.5 36.7 4.0 8.7 2.9 289.2 129.6 0.00 0.0000000 52.4
2021-05-08 05:05:00 36.3 86.1 32.6 33.0 36.3 4.0 4.6 3.1 26.9 281.9 0.00 0.0000000 52.3
2021-05-08 05:10:00 36.6 84.6 32.4 34.1 36.6 3.3 7.1 2.9 308.2 16.4 0.00 0.0000000 52.2
2021-05-08 05:15:00 36.3 85.4 32.3 36.3 36.3 0.0 3.0 0.8 176.5 268.3 0.00 0.0000000 52.1
2021-05-08 05:20:00 35.8 85.4 31.9 35.8 35.8 2.8 2.8 1.0 275.3 249.9 0.00 0.0000000 52.1
2021-05-08 05:25:00 37.4 85.5 33.4 32.4 37.4 6.3 7.1 4.3 314.3 316.5 0.00 0.0000000 52.0
2021-05-08 05:30:00 38.7 80.0 33.1 34.6 38.7 5.5 5.8 3.2 90.3 146.3 0.00 0.0000000 51.9
2021-05-08 05:35:00 39.0 76.5 32.3 39.0 39.0 3.0 5.5 3.7 186.2 355.5 0.00 0.0000000 51.9
2021-05-08 05:40:00 38.7 77.7 32.4 38.7 38.7 2.4 7.1 4.5 118.6 155.4 0.00 0.0000000 51.8
2021-05-08 05:45:00 38.4 75.7 31.4 38.4 38.4 1.2 7.2 3.1 279.4 261.2 0.00 0.0000000 51.7
2021-05-08 05:50:00 37.6 79.1 31.7 37.6 37.6 0.0 4.7 2.5 278.2 24.0 0.00 0.0000000 51.6
2021-05-08 05:55:00 36.8 79.9 31.1 36.8 36.8 1.7 3.8 1.7 56.4 196.6 0.00 0.0000000 51.6
2021-05-08 06:00:00 36.3 81.2 31.1 36.3 36.3 0.8 4.0 1.9 163.9 140.9 0.00 0.0000000 51.5
2021-05-08 06:05:00 37.3 81.1 32.0 37.3 37.3 1.9 6.5 3.0 197.9 300.7 0.00 0.0008391 51.4
2021-05-08 06:10:00 36.6 78.6 30.6 32.6 36.6 4.9 9.0 2.3 226.0 183.7 0.00 0.0021788 51.4
2021-05-08 06:15:00 37.4 75.9 30.5 32.5 37.4 6.2 6.2 2.6 334.9 128.5 0.00 0.0039798 51.3
2021-05-08 06:20:00 36.9 76.3 30.1 36.9 36.9 3.0 6.3 3.9 191.8 195.1 0.00 0.0053862 51.2
2021-05-08 06:25:00 36.8 76.6 30.1 32.6 36.8 5.1 5.1 2.4 232.3 289.9 0.00 0.0091158 51.2
2021-05-08 06:30:00 36.5 73.9 29.0 36.5 36.5 1.7 4.0 1.8 198.7 228.8 0.00 0.0101215 51.1
2021-05-08 06:35:00 36.8 73.9 29.3 36.8 36.8 1.9 5.6 2.8 47.6 194.0 0.00 0.0117104 51.0
2021-05-08 06:40:00 37.5 70.4 28.7 35.1 37.5 3.3 5.3 3.3 295.2 303.5 0.00 0.0171298 51.0
2021-05-08 06:45:00 38.5 68.4 29.0 36.3 38.5 3.3 4.4 2.8 30.7 326.5 0.00 0.0208454 50.9
2021-05-08 06:50:00 38.7 69.2 29.5 38.7 38.7 2.8 5.3 2.7 290.2 101.8 0.00 0.0350167 50.9
2021-05-08 06:55:00 39.6 70.5 30.8 39.6 39.6 1.9 4.4 3.0 351.0 73.7 0.00 0.0559207 50.8
2021-05-08 07:00:00 40.6 68.7 31.1 40.6 40.6 1.9 3.3 1.9 47.1 300.4 0.00 0.0609023 50.8
2021-05-08 07:05:00 41.7 68.9 32.3 41.7 41.7 1.0 4.2 1.9 42.8 125.3 0.00 0.0504070 50.7
2021-05-08 07:10:00 41.6 70.3 32.6 38.6 41.6 4.6 5.6 3.4 215.6 53.1 0.00 0.0406353 50.6
2021-05-08 07:15:00 41.1 74.5 33.6 41.1 41.1 2.1 6.0 3.9 106.8 172.3 0.00 0.0272633 50.6
2021-05-08 07:20:00 41.1 73.5 33.2 41.1 41.1 0.0 4.6 1.9 117.9 182.0 0.00 0.0359072 50.6
2021-05-08 07:25:00 42.4 67.9 32.6 40.7 42.4 3.3 3.5 0.9 45.6 101.4 0.00 0.0532763 50.6
2021-05-08 07:30:00 43.3 62.7 31.4 43.3 43.3 3.0 6.0 3.3 9.3 341.4 0.00 0.0783955 50.5
2021-05-08 07:35:00 45.8 54.5 30.4 45.8 45.8 1.3 4.6 1.8 113.8 9.8 0.00 0.0980468 50.5
2021-05-08 07:40:00 48.2 52.9 31.8 47.5 48.2 3.1 3.3 1.2 254.6 55.5 0.00 0.1051109 50.5
2021-05-08 07:45:00 48.4 50.3 30.8 48.4 48.4 1.5 4.0 2.7 302.5 197.3 0.00 0.0798304 50.5
2021-05-08 07:50:00 48.8 52.7 32.3 48.8 48.8 1.3 3.3 1.7 326.7 272.9 0.00 0.0882113 50.5
2021-05-08 07:55:00 50.1 39.2 26.3 50.1 50.1 1.3 3.7 1.6 352.7 181.4 0.00 0.1146418 50.5
2021-05-08 08:00:00 51.9 44.2 30.8 51.9 51.9 1.2 1.9 1.0 165.7 110.6 0.00 0.1032302 50.5
2021-05-08 08:05:00 52.7 40.6 29.4 52.7 52.7 0.0 2.4 1.2 63.8 92.6 0.00 0.1170615 50.6
2021-05-08 08:10:00 52.1 37.3 26.8 52.1 52.1 6.0 6.0 2.4 117.4 120.8 0.00 0.1070130 50.6
2021-05-08 08:15:00 52.3 41.5 29.5 52.3 52.3 3.1 6.9 4.8 267.7 252.9 0.00 0.0983239 50.7
2021-05-08 08:20:00 53.8 26.4 20.1 53.8 53.8 5.3 6.7 4.2 317.5 280.5 0.00 0.1101491 50.8
2021-05-08 08:25:00 58.3 10.7 3.3 58.3 58.3 8.5 10.5 7.0 309.8 315.6 0.00 0.1433866 50.8
2021-05-08 08:30:00 59.7 9.8 2.6 59.7 59.7 8.5 13.3 8.6 293.4 315.7 0.00 0.1401096 50.9
2021-05-08 08:35:00 60.1 8.8 0.4 60.1 60.1 7.6 14.0 8.8 303.8 308.7 0.00 0.1548075 51.0
2021-05-08 08:40:00 59.9 10.4 3.9 59.9 59.9 7.6 14.4 10.4 291.2 319.3 0.00 0.1217295 51.1
2021-05-08 08:45:00 60.3 9.7 2.6 60.3 60.3 16.5 16.5 9.2 339.6 327.3 0.00 0.1622256 51.2
2021-05-08 08:50:00 60.6 11.8 7.3 60.6 60.6 5.1 15.6 9.1 294.0 303.4 0.00 0.1567940 51.3
2021-05-08 08:55:00 60.9 12.1 8.1 60.9 60.9 8.3 13.3 8.3 28.8 319.9 0.00 0.1667264 51.4
2021-05-08 09:00:00 60.5 11.7 7.1 60.5 60.5 8.3 15.5 9.5 299.6 312.7 0.00 0.1661434 51.5
2021-05-08 09:05:00 61.1 12.1 8.3 61.1 61.1 6.9 10.6 8.0 302.1 317.2 0.00 0.1736404 51.6
2021-05-08 09:10:00 60.9 12.4 8.5 60.9 60.9 8.5 14.4 8.9 337.2 314.2 0.00 0.1700602 51.7
2021-05-08 09:15:00 61.3 14.8 13.0 61.3 61.3 6.5 12.8 7.6 321.7 305.3 0.00 0.1985871 51.8
2021-05-08 09:20:00 61.6 14.4 12.5 61.6 61.6 11.2 11.3 8.4 331.7 334.7 0.00 0.2025494 51.9
2021-05-08 09:25:00 62.1 14.4 12.8 62.1 62.1 7.8 13.5 9.0 325.2 325.2 0.00 0.2145359 52.0
2021-05-08 09:30:00 62.4 13.5 11.8 62.4 62.4 10.8 12.4 7.2 307.1 322.3 0.00 0.1984799 52.2
2021-05-08 09:35:00 62.3 12.7 10.2 62.3 62.3 8.7 13.1 9.7 338.0 325.2 0.00 0.2155890 52.3
2021-05-08 09:40:00 62.4 13.2 11.2 62.4 62.4 9.0 12.8 8.5 262.5 314.2 0.00 0.2063297 52.5
2021-05-08 09:45:00 62.6 14.5 13.5 62.6 62.6 7.8 16.5 8.4 317.6 327.8 0.00 0.2219785 52.7
2021-05-08 09:50:00 62.8 12.4 10.1 62.8 62.8 9.4 11.0 7.5 1.2 324.6 0.00 0.1947836 52.9
2021-05-08 09:55:00 63.8 15.2 15.5 63.8 63.8 3.8 10.8 5.7 101.8 331.4 0.00 0.2524506 53.1
2021-05-08 10:00:00 64.7 13.6 13.7 64.7 64.7 3.5 7.4 3.7 343.3 346.3 0.00 0.2589286 53.3
2021-05-08 10:05:00 65.0 14.5 15.4 65.0 65.0 1.9 7.1 4.4 47.5 345.2 0.00 0.2197392 53.5
2021-05-08 10:10:00 63.8 12.9 11.7 63.8 63.8 4.2 7.4 4.6 42.0 338.3 0.00 0.1836520 53.8
2021-05-08 10:15:00 64.9 11.1 9.2 64.9 64.9 4.7 7.8 4.4 313.7 357.2 0.00 0.2368829 54.0
2021-05-08 10:20:00 65.3 15.4 17.1 65.3 65.3 3.5 6.9 4.1 65.4 12.7 0.00 0.2532361 54.3
2021-05-08 10:25:00 64.2 12.0 10.6 64.2 64.2 4.6 9.2 5.5 50.8 347.8 0.00 0.2511726 54.6
2021-05-08 10:30:00 64.5 13.7 13.7 64.5 64.5 2.1 7.2 4.1 75.4 316.1 0.00 0.2518151 54.8
2021-05-08 10:35:00 65.3 12.1 11.6 65.3 65.3 4.2 10.6 5.0 349.3 12.0 0.00 0.2619878 55.1
2021-05-08 10:40:00 65.1 14.0 14.7 65.1 65.1 2.8 11.2 5.0 279.4 294.6 0.00 0.2664647 55.4
2021-05-08 10:45:00 64.9 15.1 16.2 64.9 64.9 7.2 13.1 6.8 218.6 287.0 0.00 0.2711691 55.7
2021-05-08 10:50:00 64.2 10.4 7.3 64.2 64.2 3.5 11.0 6.5 320.0 316.6 0.00 0.2743306 56.0
2021-05-08 10:55:00 64.6 10.1 6.9 64.6 64.6 4.2 13.9 7.8 49.4 334.3 0.00 0.2775524 56.3
2021-05-08 11:00:00 64.9 11.3 9.6 64.9 64.9 9.0 12.8 8.2 302.1 279.2 0.00 0.2819556 56.6
2021-05-08 11:05:00 65.5 13.4 14.0 65.5 65.5 4.0 9.9 5.9 279.5 317.1 0.00 0.2855736 56.9
2021-05-08 11:10:00 66.1 11.2 10.3 66.1 66.1 3.1 11.0 5.2 212.0 302.0 0.00 0.2872335 57.3
2021-05-08 11:15:00 66.1 10.9 9.8 66.1 66.1 9.7 12.8 6.7 307.2 280.7 0.00 0.2892341 57.6
2021-05-08 11:20:00 65.6 10.1 7.6 65.6 65.6 7.4 9.2 4.5 342.9 49.9 0.00 0.2921290 57.9
2021-05-08 11:25:00 66.7 15.2 17.8 66.7 66.7 2.4 7.6 4.1 322.9 26.5 0.00 0.2948852 58.2
2021-05-08 11:30:00 66.3 11.6 11.3 66.3 66.3 7.2 11.7 7.7 333.5 335.4 0.00 0.2969911 58.5
2021-05-08 11:35:00 65.7 11.9 11.6 65.7 65.7 10.6 14.9 8.7 320.3 313.3 0.00 0.2940651 58.9
2021-05-08 11:40:00 66.6 11.6 11.5 66.6 66.6 8.7 10.3 5.8 15.6 341.7 0.00 0.3055354 59.2
2021-05-08 11:45:00 66.0 11.1 10.1 66.0 66.0 5.6 9.7 7.0 267.0 306.1 0.00 0.3056890 59.5
2021-05-08 11:50:00 65.7 12.6 12.6 65.7 65.7 7.2 13.3 8.1 337.9 327.1 0.00 0.2646914 59.9
2021-05-08 11:55:00 65.6 14.1 15.2 65.6 65.6 2.8 11.9 7.4 252.2 295.4 0.00 0.2917733 60.2
2021-05-08 12:00:00 66.2 10.8 9.7 66.2 66.2 8.0 13.5 7.0 311.8 323.2 0.00 0.3036209 60.5
2021-05-08 12:05:00 66.3 12.4 13.0 66.3 66.3 9.7 13.0 9.5 349.3 303.1 0.00 0.3067588 60.9
2021-05-08 12:10:00 66.2 12.1 12.3 66.2 66.2 8.7 17.1 11.1 341.9 330.1 0.00 0.3115715 61.2
2021-05-08 12:15:00 66.6 11.7 11.8 66.6 66.6 6.0 13.5 7.8 311.9 313.1 0.00 0.2993970 61.5
2021-05-08 12:20:00 67.5 11.7 12.5 67.5 67.5 4.4 11.7 7.4 316.3 324.2 0.00 0.3028326 61.8
2021-05-08 12:25:00 66.2 12.7 13.3 66.2 66.2 9.6 17.4 11.3 335.6 329.9 0.00 0.2869021 62.1
2021-05-08 12:30:00 66.4 12.3 12.8 66.4 66.4 8.0 14.6 9.5 286.5 327.9 0.00 0.3091075 62.4
2021-05-08 12:35:00 66.9 12.9 14.3 66.9 66.9 5.8 12.8 8.3 339.8 339.8 0.00 0.2905122 62.6
2021-05-08 12:40:00 66.3 12.2 12.6 66.3 66.3 10.1 18.3 11.5 28.8 338.9 0.00 0.3043064 62.9
2021-05-08 12:45:00 66.3 14.6 16.5 66.3 66.3 7.2 15.5 10.1 311.9 320.9 0.00 0.3144416 63.2
2021-05-08 12:50:00 66.1 12.6 13.1 66.1 66.1 13.9 17.1 11.1 274.8 305.4 0.00 0.3153430 63.4
2021-05-08 12:55:00 66.7 11.7 11.8 66.7 66.7 6.5 17.1 10.8 337.4 316.0 0.00 0.2996373 63.7
2021-05-08 13:00:00 67.1 11.7 12.2 67.1 67.1 11.5 15.1 7.1 257.1 290.9 0.00 0.3151223 63.9
2021-05-08 13:05:00 67.7 13.9 16.6 67.7 67.7 5.1 14.0 8.1 304.1 291.4 0.00 0.2908025 64.1
2021-05-08 13:10:00 67.2 10.6 10.0 67.2 67.2 8.8 20.5 10.7 288.8 309.4 0.00 0.3157105 64.4
2021-05-08 13:15:00 68.1 11.2 11.8 68.1 68.1 8.7 10.8 7.5 289.7 293.9 0.00 0.3146202 64.5
2021-05-08 13:20:00 68.2 11.2 12.0 68.2 68.2 9.4 15.8 8.6 299.5 272.9 0.00 0.3135595 64.7
2021-05-08 13:25:00 68.2 9.4 8.1 68.2 68.2 13.0 17.2 10.3 276.5 278.5 0.00 0.3140284 64.9
2021-05-08 13:30:00 67.7 9.9 9.0 67.7 67.7 4.2 15.1 7.4 341.4 291.3 0.00 0.3132884 65.1
2021-05-08 13:35:00 68.6 9.7 9.0 68.6 68.6 7.8 14.2 7.0 163.4 286.9 0.00 0.3128580 65.3
2021-05-08 13:40:00 68.2 10.8 11.2 68.2 68.2 4.4 20.1 11.3 254.8 278.4 0.00 0.3116624 65.4
2021-05-08 13:45:00 69.3 11.7 13.9 69.3 69.3 7.4 15.1 7.5 226.5 266.9 0.00 0.3113019 65.6
2021-05-08 13:50:00 68.8 12.9 15.7 68.8 68.8 5.6 13.9 9.5 328.5 254.8 0.00 0.3095702 65.8
2021-05-08 13:55:00 68.8 11.1 12.3 68.8 68.8 4.9 15.6 9.2 270.0 268.5 0.00 0.3078998 66.0
2021-05-08 14:00:00 68.8 10.9 12.0 68.8 68.8 11.9 15.6 10.0 268.6 262.8 0.00 0.3058080 66.1
2021-05-08 14:05:00 68.1 11.9 13.4 68.1 68.1 9.9 19.9 13.4 308.2 296.5 0.00 0.3041893 66.3
2021-05-08 14:10:00 68.7 11.3 12.6 68.7 68.7 11.7 17.2 11.6 292.7 301.8 0.00 0.3020559 66.5
2021-05-08 14:15:00 68.5 13.1 15.8 68.5 68.5 11.7 18.1 11.5 283.5 310.6 0.00 0.3003334 66.7
2021-05-08 14:20:00 68.7 10.3 10.5 68.7 68.7 13.7 19.4 9.2 271.5 266.6 0.00 0.2993774 66.9
2021-05-08 14:25:00 69.2 10.1 10.4 69.2 69.2 11.5 16.2 10.0 265.6 283.3 0.00 0.2994752 67.1
2021-05-08 14:30:00 68.2 11.1 11.8 68.2 68.2 10.6 17.8 10.3 293.7 250.3 0.00 0.2987096 67.3
2021-05-08 14:35:00 68.5 12.7 15.1 68.5 68.5 11.7 16.5 10.7 261.1 261.5 0.00 0.2953188 67.4
2021-05-08 14:40:00 67.9 12.4 14.2 67.9 67.9 14.6 23.5 14.3 267.1 294.7 0.00 0.2930106 67.6
2021-05-08 14:45:00 67.9 11.9 13.2 67.9 67.9 16.2 19.9 13.6 289.3 294.5 0.00 0.2960832 67.8
2021-05-08 14:50:00 68.2 13.5 16.3 68.2 68.2 6.5 15.5 10.4 260.6 287.7 0.00 0.2837358 67.9
2021-05-08 14:55:00 68.8 14.1 17.8 68.8 68.8 6.7 13.7 9.4 284.1 286.9 0.00 0.2964309 68.1
2021-05-08 15:00:00 67.8 14.0 16.8 67.8 67.8 8.3 17.1 11.7 297.4 297.5 0.00 0.2826404 68.3
2021-05-08 15:05:00 67.6 15.6 19.2 67.6 67.6 8.1 15.8 11.0 261.1 301.0 0.00 0.2739376 68.5
2021-05-08 15:10:00 67.7 15.5 19.1 67.7 67.7 9.0 13.5 9.4 260.1 298.1 0.00 0.2599190 68.6
2021-05-08 15:15:00 67.0 12.7 14.0 67.0 67.0 11.5 13.9 9.5 318.6 284.3 0.00 0.1884686 68.7
2021-05-08 15:20:00 67.7 13.1 15.2 67.7 67.7 11.0 18.3 12.4 309.0 290.4 0.00 0.2794954 68.9
2021-05-08 15:25:00 68.7 12.7 15.2 68.7 68.7 9.7 16.9 9.1 311.3 275.7 0.00 0.2693505 69.0
2021-05-08 15:30:00 68.4 10.5 10.8 68.4 68.4 11.5 18.1 12.8 274.4 267.1 0.00 0.2624485 69.1
2021-05-08 15:35:00 68.5 12.1 14.0 68.5 68.5 6.3 20.1 11.0 271.7 289.4 0.00 0.2555055 69.2
2021-05-08 15:40:00 67.7 13.2 15.3 67.7 67.7 5.6 18.1 11.7 221.8 241.3 0.00 0.2038991 69.3
2021-05-08 15:45:00 66.8 11.3 11.1 66.8 66.8 8.8 16.0 11.2 255.6 241.3 0.00 0.1285577 69.4
2021-05-08 15:50:00 65.7 12.1 11.8 65.7 65.7 11.7 13.1 10.0 293.5 279.3 0.00 0.0833557 69.5
2021-05-08 15:55:00 64.9 13.9 14.5 64.9 64.9 9.2 28.7 13.1 288.2 294.2 0.00 0.2025501 69.6
2021-05-08 16:00:00 64.8 12.1 11.1 64.8 64.8 12.1 15.5 10.7 279.9 293.6 0.00 0.1123363 69.6
2021-05-08 16:05:00 65.3 11.6 10.6 65.3 65.3 9.4 13.9 8.9 188.9 267.2 0.00 0.1062629 69.6
2021-05-08 16:10:00 66.7 12.9 14.1 66.7 66.7 17.4 17.4 8.3 301.2 291.1 0.00 0.1825913 69.6
2021-05-08 16:15:00 65.1 12.6 12.2 65.1 65.1 12.2 21.9 13.2 303.5 289.7 0.00 0.1031384 69.6
2021-05-08 16:20:00 65.1 14.6 15.5 65.1 65.1 14.4 19.0 11.4 250.7 282.3 0.00 0.1478482 69.5
2021-05-08 16:25:00 64.0 18.0 19.6 64.0 64.0 21.7 26.2 17.5 301.7 286.3 0.00 0.2214216 69.5
2021-05-08 16:30:00 63.0 17.1 17.6 63.0 63.0 18.9 24.8 15.1 309.6 294.9 0.00 0.2053391 69.4
2021-05-08 16:35:00 63.2 19.9 21.4 63.2 63.2 6.9 18.9 10.7 267.2 316.3 0.00 0.1960032 69.4
2021-05-08 16:40:00 63.7 17.3 18.4 63.7 63.7 5.5 15.8 9.3 346.3 313.0 0.00 0.1899696 69.3
2021-05-08 16:45:00 64.5 17.1 18.8 64.5 64.5 8.1 11.5 8.0 303.0 318.6 0.00 0.1849707 69.3
2021-05-08 16:50:00 64.8 19.0 21.5 64.8 64.8 5.3 11.3 6.7 316.6 290.0 0.00 0.1801142 69.2
2021-05-08 16:55:00 65.5 15.3 17.1 65.5 65.5 12.4 22.6 11.8 295.3 312.7 0.00 0.1756210 69.2
2021-05-08 17:00:00 65.7 14.2 15.4 65.7 65.7 16.4 17.6 10.7 319.6 307.2 0.00 0.1705767 69.1
2021-05-08 17:05:00 65.9 15.2 17.2 65.9 65.9 10.8 18.7 11.1 308.4 319.8 0.00 0.1653955 69.1
2021-05-08 17:10:00 65.6 15.0 16.7 65.6 65.6 11.5 18.9 12.9 297.9 317.3 0.00 0.1607769 69.1
2021-05-08 17:15:00 65.6 14.8 16.3 65.6 65.6 18.9 18.9 12.9 291.5 290.9 0.00 0.1565919 69.1
2021-05-08 17:20:00 65.7 14.7 16.3 65.7 65.7 14.9 19.0 12.4 308.8 292.0 0.00 0.1498796 69.1
2021-05-08 17:25:00 65.3 16.4 18.5 65.3 65.3 9.2 16.9 10.2 280.9 274.1 0.00 0.1154691 69.1
2021-05-08 17:30:00 63.6 15.3 15.6 63.6 63.6 17.1 17.1 10.4 286.7 276.2 0.00 0.0436541 69.0
2021-05-08 17:35:00 62.4 17.9 18.2 62.4 62.4 6.9 16.4 10.9 276.3 256.0 0.00 0.0923531 69.0
2021-05-08 17:40:00 64.0 17.9 19.5 64.0 64.0 5.1 13.7 7.1 231.5 235.1 0.00 0.1288217 69.0
2021-05-08 17:45:00 64.5 16.2 17.5 64.5 64.5 4.7 10.6 6.6 180.4 236.4 0.00 0.1208718 68.9
2021-05-08 17:50:00 64.9 16.0 17.6 64.9 64.9 13.3 16.0 11.7 271.1 282.0 0.00 0.1157508 68.8
2021-05-08 17:55:00 64.5 16.2 17.5 64.5 64.5 14.6 20.5 13.8 318.4 310.7 0.00 0.1039545 68.7
2021-05-08 18:00:00 64.5 17.0 18.6 64.5 64.5 8.1 16.0 11.2 276.7 309.8 0.00 0.0953410 68.6
2021-05-08 18:05:00 63.2 17.9 18.8 63.2 63.2 9.0 16.4 10.7 274.8 289.7 0.00 0.0569324 68.6
2021-05-08 18:10:00 63.9 17.9 19.4 63.9 63.9 6.2 12.1 7.6 204.5 290.5 0.00 0.0866893 68.5
2021-05-08 18:15:00 63.5 16.9 17.7 63.5 63.5 7.8 15.5 9.5 242.0 297.8 0.00 0.0516332 68.4
2021-05-08 18:20:00 62.6 17.7 18.1 62.6 62.6 10.3 14.7 11.2 307.6 306.5 0.00 0.0277750 68.3
2021-05-08 18:25:00 62.0 17.2 16.9 62.0 62.0 10.5 14.0 11.2 286.3 298.2 0.00 0.0171597 68.2
2021-05-08 18:30:00 62.0 17.0 16.5 62.0 62.0 5.3 17.1 10.1 299.8 298.2 0.00 0.0304210 68.1
2021-05-08 18:35:00 62.1 15.2 14.1 62.1 62.1 9.6 23.7 10.7 265.6 293.3 0.00 0.0417699 68.0
2021-05-08 18:40:00 62.0 15.4 14.4 62.0 62.0 15.6 15.6 10.1 289.0 303.9 0.00 0.0237886 67.9
2021-05-08 18:45:00 61.5 16.6 15.7 61.5 61.5 8.1 15.3 10.3 275.3 289.7 0.00 0.0081941 67.7
2021-05-08 18:50:00 61.0 16.1 14.5 61.0 61.0 9.9 14.9 8.2 316.4 297.2 0.00 0.0081250 67.6
2021-05-08 18:55:00 61.2 16.0 14.6 61.2 61.2 10.1 15.6 11.3 295.3 296.7 0.00 0.0082421 67.4
2021-05-08 19:00:00 61.2 16.6 15.5 61.2 61.2 10.6 18.9 12.2 278.5 295.1 0.00 0.0072209 67.3
2021-05-08 19:05:00 60.8 18.0 17.0 60.8 60.8 5.3 11.0 8.4 339.3 311.9 0.00 0.0049907 67.1
2021-05-08 19:10:00 60.4 18.9 17.8 60.4 60.4 9.6 9.6 6.0 291.2 304.4 0.00 0.0037677 66.9
2021-05-08 19:15:00 60.2 20.5 19.5 60.2 60.2 9.0 15.1 9.5 273.5 292.4 0.00 0.0035936 66.7
2021-05-08 19:20:00 60.0 21.5 20.5 60.0 60.0 5.8 12.6 8.4 311.1 295.0 0.00 0.0031577 66.5
2021-05-08 19:25:00 59.8 21.2 19.9 59.8 59.8 6.3 11.9 7.4 339.5 299.8 0.00 0.0027211 66.3
2021-05-08 19:30:00 59.2 22.4 20.8 59.2 59.2 3.5 10.6 5.6 284.1 299.3 0.00 0.0020645 66.2
2021-05-08 19:35:00 59.2 22.6 21.0 59.2 59.2 5.6 11.2 7.5 287.5 291.1 0.00 0.0018234 66.0
2021-05-08 19:40:00 59.3 22.8 21.2 59.3 59.3 3.1 11.5 7.4 308.2 292.4 0.00 0.0011680 65.8
2021-05-08 19:45:00 59.2 23.1 21.4 59.2 59.2 9.6 14.4 8.9 299.9 299.0 0.00 0.0006504 65.6
2021-05-08 19:50:00 59.1 22.8 21.1 59.1 59.1 8.8 13.9 8.1 278.7 281.9 0.00 0.0001777 65.5
2021-05-08 19:55:00 58.7 22.0 20.0 58.7 58.7 13.0 13.7 7.6 24.1 286.4 0.00 0.0000007 65.3
2021-05-08 20:00:00 59.3 20.6 18.9 59.3 59.3 14.0 17.8 10.4 299.8 295.9 0.00 0.0000000 65.1
2021-05-08 20:05:00 58.7 21.8 19.7 58.7 58.7 5.3 14.6 8.5 141.7 282.6 0.00 0.0000000 64.9
2021-05-08 20:10:00 58.4 22.5 20.2 58.4 58.4 7.4 9.6 6.3 306.7 282.6 0.00 0.0000000 64.8
2021-05-08 20:15:00 58.1 23.2 20.7 58.1 58.1 5.3 6.9 4.5 276.7 287.7 0.00 0.0000000 64.6
2021-05-08 20:20:00 58.3 22.5 20.2 58.3 58.3 7.8 13.9 6.9 323.9 303.0 0.00 0.0000000 64.5
2021-05-08 20:25:00 58.2 24.1 21.6 58.2 58.2 11.2 18.7 12.2 278.3 285.2 0.00 0.0000000 64.3
2021-05-08 20:30:00 58.0 24.0 21.4 58.0 58.0 16.7 16.7 11.2 306.6 296.2 0.00 0.0000000 64.1
2021-05-08 20:35:00 58.2 24.2 21.7 58.2 58.2 6.7 20.6 10.4 293.3 296.0 0.00 0.0000000 64.0
2021-05-08 20:40:00 58.0 23.9 21.3 58.0 58.0 7.2 13.3 8.6 309.3 291.0 0.00 0.0000000 63.8
2021-05-08 20:45:00 57.9 24.1 21.4 57.9 57.9 16.5 19.6 11.8 10.7 303.8 0.00 0.0000000 63.7
2021-05-08 20:50:00 57.5 28.2 24.9 57.5 57.5 8.0 24.9 12.6 322.5 290.8 0.00 0.0000000 63.5
2021-05-08 20:55:00 57.1 24.5 21.1 57.1 57.1 13.1 13.1 8.7 292.9 298.8 0.00 0.0000000 63.4
2021-05-08 21:00:00 57.8 23.6 20.8 57.8 57.8 12.8 17.2 10.4 313.1 304.6 0.00 0.0000000 63.2
2021-05-08 21:05:00 57.7 23.7 20.8 57.7 57.7 15.8 15.8 8.3 291.3 298.0 0.00 0.0000000 63.1
2021-05-08 21:10:00 58.0 23.9 21.3 58.0 58.0 10.8 15.3 10.3 255.0 307.4 0.00 0.0000000 63.0
2021-05-08 21:15:00 58.0 23.4 20.7 58.0 58.0 7.1 13.0 10.3 310.1 294.7 0.00 0.0000000 62.8
2021-05-08 21:20:00 57.3 23.9 20.7 57.3 57.3 6.5 10.1 6.4 316.0 287.3 0.00 0.0000000 62.7
2021-05-08 21:25:00 57.0 24.1 20.6 57.0 57.0 3.5 11.5 6.8 301.1 287.9 0.00 0.0000000 62.6
2021-05-08 21:30:00 56.9 24.5 20.9 56.9 56.9 3.5 9.4 5.7 320.5 299.8 0.00 0.0000000 62.4

Data is courtesy of the NM Climate Center. DO NOT USE IN LEGAL PROCEEDINGS.